Weather at Bario Airport

Public forecast

Using degrees Celsius for public forecast. Weather courtesy of forecast.io.

Closest aviation weather report (METAR) to Bario Airport

Closest report is Brunei International Airport, 79.8 nm (147.7 km) NNW. Retrieved 2022/06/27 22:30 UTC (23 minutes ago):

WBSB 272230Z 18002KT 9999 FEW005 FEW015CB BKN300 24/24 Q1009 NOSIG

Closest aviation forecast (TAF) to Bario Airport

Closest forecast is Brunei International Airport, 79.8 nm (147.7 km) NNW. Retrieved 2022/06/27 18:09 UTC (5 hours ago):

TAF WBSB 271700Z 2718/2900 16004KT 9999 FEW014 BECMG 2800/2802 20005KT FEW015 FEW016CB BECMG 2804/2806 26008KT FEW016 FEW017CB